createdAt,value
2023-03-01T00:02:18.789Z,103270.75
2023-03-01T00:07:20.275Z,103267.41
2023-03-01T00:12:21.738Z,103268.59
2023-03-01T00:17:23.238Z,103258.88
2023-03-01T00:22:24.738Z,103266.19
2023-03-01T00:27:26.427Z,103258.34
2023-03-01T00:32:27.935Z,103253.84
2023-03-01T00:37:29.480Z,103249.53
2023-03-01T00:42:30.987Z,103243.34
2023-03-01T00:47:32.475Z,103255.94
2023-03-01T00:52:34.000Z,103252.44
2023-03-01T00:57:35.557Z,103238.03
2023-03-01T01:02:37.401Z,103229.41
2023-03-01T01:07:39.244Z,103231.25
2023-03-01T01:12:40.787Z,103236.94
2023-03-01T01:17:42.332Z,103225.69
2023-03-01T01:22:43.834Z,103221.19
2023-03-01T01:27:45.400Z,103218.91
2023-03-01T01:32:46.907Z,103216.97
2023-03-01T01:37:48.378Z,103217.03
2023-03-01T01:42:49.837Z,103201.78
2023-03-01T01:47:53.599Z,103205.75
2023-03-01T01:52:55.902Z,103200.16
2023-03-01T01:58:03.059Z,103194.81
2023-03-01T02:03:10.936Z,103187.94
2023-03-01T02:08:14.956Z,103191.66
2023-03-01T02:13:16.487Z,103186.25
2023-03-01T02:18:21.026Z,103182.69
2023-03-01T02:23:23.308Z,103181.63
2023-03-01T02:28:33.062Z,103177.16
2023-03-01T02:33:38.080Z,103166.34
2023-03-01T02:38:40.497Z,103154.81
2023-03-01T02:43:42.415Z,103153.66
2023-03-01T02:48:47.980Z,103158.97
2023-03-01T02:54:00.174Z,103154.88
2023-03-01T02:59:01.851Z,103145.75
2023-03-01T03:04:07.922Z,103148.72
2023-03-01T03:09:09.471Z,103135.19
2023-03-01T03:14:15.590Z,103140.84
2023-03-01T03:19:18.843Z,103131.97
2023-03-01T03:24:20.327Z,103125.03
2023-03-01T03:29:21.871Z,103115.19
2023-03-01T03:34:24.577Z,103102.44
2023-03-01T03:39:27.956Z,103113.34
2023-03-01T03:44:29.528Z,103111.38
2023-03-01T03:49:31.003Z,103109.63
2023-03-01T03:54:32.461Z,103108.94
2023-03-01T03:59:34.066Z,103101.00
2023-03-01T04:04:35.850Z,103087.47
2023-03-01T04:09:37.337Z,103092.84
2023-03-01T04:14:38.900Z,103099.09
2023-03-01T04:19:40.865Z,103091.06
2023-03-01T04:24:42.409Z,103090.09
2023-03-01T04:29:43.912Z,103092.97
2023-03-01T04:34:45.445Z,103081.22
2023-03-01T04:39:48.665Z,103095.41
2023-03-01T04:44:52.228Z,103100.50
2023-03-01T04:49:53.720Z,103097.75
2023-03-01T04:54:55.260Z,103105.03
2023-03-01T04:59:56.865Z,103089.13
2023-03-01T05:04:58.582Z,103078.59
2023-03-01T05:10:00.092Z,103078.72
2023-03-01T05:15:01.568Z,103071.69
2023-03-01T05:20:07.988Z,103060.13
2023-03-01T05:25:09.998Z,103053.19
2023-03-01T05:30:14.539Z,103058.25
2023-03-01T05:35:19.157Z,103044.63
2023-03-01T05:40:25.111Z,103052.47
2023-03-01T05:45:28.228Z,103046.97
2023-03-01T05:50:32.953Z,103040.63
2023-03-01T05:55:36.153Z,103029.03
2023-03-01T06:00:37.770Z,103019.25
2023-03-01T06:05:40.421Z,103030.88
2023-03-01T06:10:42.086Z,103014.19
2023-03-01T06:15:43.639Z,103006.81
2023-03-01T06:20:45.142Z,103019.31
2023-03-01T06:25:46.648Z,103024.31
2023-03-01T06:30:48.243Z,103030.53
2023-03-01T06:35:49.953Z,103029.38
2023-03-01T06:40:55.935Z,103022.72
2023-03-01T06:45:57.450Z,103022.19
2023-03-01T06:51:01.651Z,103031.38
2023-03-01T06:56:03.390Z,103030.41
2023-03-01T07:01:08.712Z,103031.75
2023-03-01T07:06:10.240Z,103039.97
2023-03-01T07:11:12.705Z,103046.53
2023-03-01T07:16:15.342Z,103050.22
2023-03-01T07:21:17.483Z,103051.47
2023-03-01T07:26:18.959Z,103063.59
2023-03-01T07:31:20.475Z,103064.41
2023-03-01T07:36:22.126Z,103056.31
2023-03-01T07:41:23.623Z,103054.78
2023-03-01T07:46:25.179Z,103050.72
2023-03-01T07:51:26.758Z,103064.34
2023-03-01T07:56:29.080Z,103071.66
2023-03-01T08:01:30.814Z,103068.78
2023-03-01T08:06:32.657Z,103071.66
2023-03-01T08:11:34.385Z,103059.00
2023-03-01T08:16:36.473Z,103068.94
2023-03-01T08:21:38.744Z,103069.06
2023-03-01T08:26:40.388Z,103071.41
2023-03-01T08:31:42.215Z,103072.66
2023-03-01T08:36:46.352Z,103081.94
2023-03-01T08:41:48.392Z,103062.53
2023-03-01T08:46:51.573Z,103056.88
2023-03-01T08:51:53.943Z,103045.16
2023-03-01T08:56:56.272Z,103024.88
2023-03-01T09:01:57.806Z,103026.44
2023-03-01T09:06:59.397Z,103043.34
2023-03-01T09:12:01.023Z,103041.06
2023-03-01T09:17:04.005Z,103032.19
2023-03-01T09:22:05.762Z,103037.88
2023-03-01T09:27:09.734Z,103041.44
2023-03-01T09:32:11.691Z,103037.22
2023-03-01T09:37:13.235Z,103040.16
2023-03-01T09:42:14.841Z,103027.38
2023-03-01T09:47:31.917Z,103022.63
2023-03-01T09:52:47.153Z,103015.50
2023-03-01T09:57:54.615Z,103018.94
2023-03-01T10:03:11.085Z,103008.75
2023-03-01T10:08:53.831Z,103004.41
2023-03-01T10:14:05.156Z,103007.72
2023-03-01T10:19:12.274Z,102999.59
2023-03-01T10:24:17.225Z,102999.00
2023-03-01T10:29:23.194Z,103005.94
2023-03-01T10:34:31.710Z,103006.47
2023-03-01T10:39:35.006Z,102997.31
2023-03-01T10:44:45.374Z,102988.38
2023-03-01T10:50:05.917Z,102975.84
2023-03-01T10:55:31.495Z,102979.75
2023-03-01T11:00:33.881Z,102976.66
2023-03-01T11:05:36.007Z,102971.25
2023-03-01T11:10:37.803Z,102978.28
2023-03-01T11:15:39.415Z,102972.31
2023-03-01T11:20:41.869Z,102960.63
2023-03-01T11:25:48.926Z,102957.25
2023-03-01T11:31:08.957Z,102955.09
2023-03-01T11:36:22.813Z,102946.88
2023-03-01T11:41:35.277Z,102935.22
2023-03-01T11:46:52.693Z,102937.78
2023-03-01T11:52:22.682Z,102931.25
2023-03-01T11:57:45.984Z,102923.59
2023-03-01T12:03:19.131Z,102929.19
2023-03-01T12:08:44.659Z,102921.28
2023-03-01T12:14:27.516Z,102917.84
2023-03-01T12:20:00.303Z,102911.72
2023-03-01T12:25:02.807Z,102901.63
2023-03-01T12:30:26.199Z,102896.06
2023-03-01T12:35:39.148Z,102881.53
2023-03-01T12:41:18.900Z,102878.63
2023-03-01T12:46:36.501Z,102873.38
2023-03-01T12:51:40.175Z,102857.94
2023-03-01T12:56:42.431Z,102856.13
2023-03-01T13:01:54.069Z,102850.03
2023-03-01T13:07:01.285Z,102845.88
2023-03-01T13:12:06.068Z,102839.19
2023-03-01T13:17:34.204Z,102839.09
2023-03-01T13:22:44.264Z,102842.53
2023-03-01T13:27:51.590Z,102828.72
2023-03-01T13:32:53.314Z,102836.84
2023-03-01T13:38:33.202Z,102821.28
2023-03-01T13:43:37.365Z,102820.50
2023-03-01T13:48:40.286Z,102805.41
2023-03-01T13:53:46.007Z,102798.56
2023-03-01T13:58:54.280Z,102790.09
2023-03-01T14:03:56.662Z,102785.50
2023-03-01T14:09:07.093Z,102796.31
2023-03-01T14:14:29.158Z,102785.22
2023-03-01T14:19:34.327Z,102775.44
2023-03-01T14:24:41.697Z,102762.81
2023-03-01T14:29:43.593Z,102755.94
2023-03-01T14:34:47.455Z,102751.91
2023-03-01T14:39:50.266Z,102736.66
2023-03-01T14:44:55.303Z,102745.84
2023-03-01T14:50:08.297Z,102729.53
2023-03-01T14:55:42.179Z,102726.72
2023-03-01T15:00:52.039Z,102715.94
2023-03-01T15:05:54.593Z,102713.78
2023-03-01T15:11:03.594Z,102710.03
2023-03-01T15:16:23.919Z,102697.50
2023-03-01T15:21:29.997Z,102698.25
2023-03-01T15:26:38.641Z,102721.28
2023-03-01T15:31:40.369Z,102704.53
2023-03-01T15:36:45.208Z,102704.59
2023-03-01T15:41:49.947Z,102694.22
2023-03-01T15:46:51.762Z,102692.47
2023-03-01T15:51:55.933Z,102703.75
2023-03-01T15:56:58.042Z,102698.03
2023-03-01T16:01:59.633Z,102685.44
2023-03-01T16:07:02.065Z,102690.72
2023-03-01T16:12:03.663Z,102679.09
2023-03-01T16:17:05.194Z,102685.03
2023-03-01T16:22:06.736Z,102665.72
2023-03-01T16:27:08.328Z,102673.19
2023-03-01T16:32:09.919Z,102671.56
2023-03-01T16:37:11.578Z,102660.88
2023-03-01T16:42:13.161Z,102660.84
2023-03-01T16:47:14.648Z,102653.00
2023-03-01T16:52:16.141Z,102656.00
2023-03-01T16:57:17.610Z,102659.66
2023-03-01T17:02:20.700Z,102658.50
2023-03-01T17:07:23.110Z,102658.94
2023-03-01T17:12:24.631Z,102653.09
2023-03-01T17:17:26.466Z,102654.94
2023-03-01T17:22:28.169Z,102659.41
2023-03-01T17:27:29.749Z,102656.00
2023-03-01T17:32:31.389Z,102655.75
2023-03-01T17:37:32.971Z,102659.47
2023-03-01T17:42:34.584Z,102660.72
2023-03-01T17:47:36.223Z,102663.88
2023-03-01T17:52:37.832Z,102666.31
2023-03-01T17:57:40.663Z,102661.25
2023-03-01T18:02:42.914Z,102674.53
2023-03-01T18:07:44.567Z,102676.25
2023-03-01T18:12:46.567Z,102675.72
2023-03-01T18:17:48.047Z,102668.75
2023-03-01T18:22:50.935Z,102676.75
2023-03-01T18:27:52.492Z,102680.25
2023-03-01T18:32:56.313Z,102681.09
2023-03-01T18:37:57.925Z,102677.50
2023-03-01T18:42:59.438Z,102681.09
2023-03-01T18:48:01.349Z,102687.28
2023-03-01T18:53:02.888Z,102690.22
2023-03-01T18:58:05.162Z,102690.22
2023-03-01T19:03:06.691Z,102691.81
2023-03-01T19:08:08.214Z,102700.00
2023-03-01T19:13:10.264Z,102698.56
2023-03-01T19:18:11.804Z,102702.50
2023-03-01T19:23:13.834Z,102708.09
2023-03-01T19:28:15.496Z,102702.72
2023-03-01T19:33:16.973Z,102694.97
2023-03-01T19:38:18.531Z,102683.22
2023-03-01T19:43:20.366Z,102691.09
2023-03-01T19:48:22.922Z,102694.44
2023-03-01T19:53:24.953Z,102694.75
2023-03-01T19:58:31.019Z,102694.91
2023-03-01T20:03:36.006Z,102691.97
2023-03-01T20:08:37.565Z,102693.63
2023-03-01T20:13:39.583Z,102696.16
2023-03-01T20:18:41.388Z,102692.06
2023-03-01T20:23:42.950Z,102684.19
2023-03-01T20:28:45.610Z,102688.53
2023-03-01T20:33:47.319Z,102684.19
2023-03-01T20:38:48.883Z,102677.97
2023-03-01T20:43:56.459Z,102679.88
2023-03-01T20:48:58.094Z,102684.47
2023-03-01T20:53:59.657Z,102688.44
2023-03-01T20:59:01.576Z,102685.41
2023-03-01T21:04:03.519Z,102692.69
2023-03-01T21:09:05.534Z,102711.34
2023-03-01T21:14:07.073Z,102715.56
2023-03-01T21:19:08.940Z,102715.53
2023-03-01T21:24:11.763Z,102710.78
2023-03-01T21:29:13.248Z,102709.59
2023-03-01T21:34:14.756Z,102724.19
2023-03-01T21:39:16.393Z,102726.22
2023-03-01T21:44:17.861Z,102725.06
2023-03-01T21:49:20.788Z,102723.63
2023-03-01T21:54:22.378Z,102727.00
2023-03-01T21:59:24.344Z,102730.66
2023-03-01T22:04:25.933Z,102731.44
2023-03-01T22:09:27.553Z,102734.13
2023-03-01T22:14:30.654Z,102738.97
2023-03-01T22:19:32.259Z,102732.25
2023-03-01T22:24:33.788Z,102735.28
2023-03-01T22:29:35.605Z,102734.97
2023-03-01T22:34:37.195Z,102744.44
2023-03-01T22:39:38.762Z,102737.22
2023-03-01T22:44:40.356Z,102725.53
2023-03-01T22:49:42.576Z,102736.94
2023-03-01T22:54:44.200Z,102739.69
2023-03-01T22:59:45.836Z,102742.16
2023-03-01T23:04:48.414Z,102726.50
2023-03-01T23:09:51.104Z,102733.13
2023-03-01T23:14:52.797Z,102729.47
2023-03-01T23:19:54.381Z,102730.50
2023-03-01T23:24:55.939Z,102746.63
2023-03-01T23:29:57.537Z,102738.22
2023-03-01T23:34:59.077Z,102718.97
2023-03-01T23:40:00.714Z,102729.34
2023-03-01T23:45:02.251Z,102718.34
2023-03-01T23:50:05.389Z,102708.19
2023-03-01T23:55:08.488Z,102710.72
